createdAt,value
2022-12-04T00:01:11.970Z,54.53
2022-12-04T00:03:25.646Z,54.74
2022-12-04T00:05:38.838Z,54.84
2022-12-04T00:07:52.043Z,54.69
2022-12-04T00:10:05.538Z,54.63
2022-12-04T00:12:18.742Z,54.95
2022-12-04T00:14:31.937Z,55.03
2022-12-04T00:16:45.365Z,54.75
2022-12-04T00:18:58.977Z,54.49
2022-12-04T00:21:13.798Z,54.99
2022-12-04T00:23:27.004Z,54.81
2022-12-04T00:25:41.464Z,54.31
2022-12-04T00:27:54.856Z,54.99
2022-12-04T00:30:08.629Z,55.02
2022-12-04T00:32:21.888Z,54.91
2022-12-04T00:34:35.443Z,55.14
2022-12-04T00:36:48.657Z,54.82
2022-12-04T00:39:02.275Z,54.85
2022-12-04T00:41:18.288Z,54.60
2022-12-04T00:43:31.791Z,54.81
2022-12-04T00:45:45.254Z,54.33
2022-12-04T00:47:58.565Z,54.60
2022-12-04T00:50:13.338Z,54.50
2022-12-04T00:52:26.587Z,54.57
2022-12-04T00:54:39.845Z,54.57
2022-12-04T00:56:53.054Z,54.33
2022-12-04T00:59:06.450Z,54.22
2022-12-04T01:01:21.779Z,54.29
2022-12-04T01:03:35.295Z,54.36
2022-12-04T01:05:49.318Z,54.23
2022-12-04T01:08:02.638Z,54.35
2022-12-04T01:10:18.742Z,54.30
2022-12-04T01:12:32.473Z,54.54
2022-12-04T01:14:45.895Z,54.77
2022-12-04T01:16:59.297Z,54.61
2022-12-04T01:19:14.656Z,55.02
2022-12-04T01:21:28.130Z,55.11
2022-12-04T01:23:41.614Z,55.09
2022-12-04T01:26:05.126Z,54.93
2022-12-04T01:28:18.560Z,55.13
2022-12-04T01:30:32.160Z,55.42
2022-12-04T01:32:45.844Z,55.46
2022-12-04T01:34:59.292Z,55.29
2022-12-04T01:37:12.724Z,55.43
2022-12-04T01:39:26.095Z,55.48
2022-12-04T01:41:39.679Z,55.52
2022-12-04T01:44:20.372Z,55.32
2022-12-04T01:46:33.631Z,55.49
2022-12-04T01:48:50.177Z,55.64
2022-12-04T01:51:08.630Z,54.99
2022-12-04T01:53:22.714Z,55.52
2022-12-04T01:55:36.201Z,55.36
2022-12-04T01:57:49.659Z,55.45
2022-12-04T02:00:05.859Z,55.24
2022-12-04T02:02:23.024Z,55.35
2022-12-04T02:04:37.368Z,55.30
2022-12-04T02:06:51.117Z,55.42
2022-12-04T02:09:04.796Z,55.27
2022-12-04T02:11:29.980Z,55.48
2022-12-04T02:13:55.036Z,55.14
2022-12-04T02:16:15.049Z,55.45
2022-12-04T02:18:37.107Z,55.53
2022-12-04T02:21:01.845Z,55.30
2022-12-04T02:23:32.858Z,55.64
2022-12-04T02:25:56.936Z,55.45
2022-12-04T02:28:18.977Z,54.95
2022-12-04T02:30:34.615Z,55.36
2022-12-04T02:32:52.316Z,55.00
2022-12-04T02:35:10.105Z,55.37
2022-12-04T02:37:26.930Z,55.71
2022-12-04T02:39:44.298Z,55.81
2022-12-04T02:42:03.312Z,55.50
2022-12-04T02:44:23.939Z,55.60
2022-12-04T02:46:42.299Z,55.73
2022-12-04T02:48:59.496Z,55.62
2022-12-04T02:51:15.982Z,55.64
2022-12-04T02:53:34.052Z,55.71
2022-12-04T02:55:50.797Z,56.05
2022-12-04T02:58:15.442Z,56.02
2022-12-04T03:00:29.524Z,56.00
2022-12-04T03:02:50.185Z,55.84
2022-12-04T03:05:08.243Z,55.93
2022-12-04T03:07:28.740Z,56.08
2022-12-04T03:09:46.692Z,55.97
2022-12-04T03:12:07.355Z,55.96
2022-12-04T03:14:25.736Z,56.07
2022-12-04T03:16:44.539Z,55.92
2022-12-04T03:19:01.598Z,55.88
2022-12-04T03:21:19.972Z,55.72
2022-12-04T03:23:37.321Z,55.97
2022-12-04T03:25:55.000Z,56.25
2022-12-04T03:28:12.376Z,56.44
2022-12-04T03:30:27.004Z,56.43
2022-12-04T03:32:43.798Z,56.36
2022-12-04T03:35:02.925Z,56.51
2022-12-04T03:37:22.119Z,56.24
2022-12-04T03:39:41.053Z,56.27
2022-12-04T03:42:02.964Z,56.39
2022-12-04T03:44:20.726Z,56.36
2022-12-04T03:46:39.568Z,56.54
2022-12-04T03:48:59.147Z,56.68
2022-12-04T03:51:19.113Z,56.39
2022-12-04T03:53:40.022Z,56.23
2022-12-04T03:56:01.951Z,56.49
2022-12-04T03:58:20.548Z,56.60
2022-12-04T04:00:36.488Z,56.44
2022-12-04T04:02:55.764Z,56.22
2022-12-04T04:05:12.157Z,56.32
2022-12-04T04:07:35.540Z,56.38
2022-12-04T04:09:54.000Z,55.96
2022-12-04T04:12:12.468Z,56.30
2022-12-04T04:14:57.614Z,56.07
2022-12-04T04:17:32.278Z,56.23
2022-12-04T04:20:07.576Z,56.31
2022-12-04T04:22:56.004Z,56.24
2022-12-04T04:25:15.317Z,56.23
2022-12-04T04:27:28.706Z,55.83
2022-12-04T04:29:43.843Z,55.95
2022-12-04T04:32:07.116Z,55.55
2022-12-04T04:34:26.537Z,55.75
2022-12-04T04:36:48.101Z,55.76
2022-12-04T04:39:10.061Z,55.76
2022-12-04T04:41:30.781Z,55.83
2022-12-04T04:43:52.226Z,55.91
2022-12-04T04:46:09.481Z,55.80
2022-12-04T04:48:30.059Z,55.87
2022-12-04T04:50:45.091Z,55.38
2022-12-04T04:53:03.342Z,55.72
2022-12-04T04:55:18.633Z,55.38
2022-12-04T04:57:37.315Z,55.04
2022-12-04T04:59:50.728Z,55.00
2022-12-04T05:02:04.175Z,55.11
2022-12-04T05:04:17.704Z,55.20
2022-12-04T05:06:31.055Z,55.10
2022-12-04T05:08:45.404Z,55.31
2022-12-04T05:10:59.429Z,54.90
2022-12-04T05:13:12.958Z,55.14
2022-12-04T05:15:26.205Z,54.94
2022-12-04T05:17:40.687Z,54.77
2022-12-04T05:19:57.722Z,54.47
2022-12-04T05:22:11.316Z,54.55
2022-12-04T05:24:24.556Z,54.21
2022-12-04T05:26:37.977Z,54.49
2022-12-04T05:28:51.291Z,54.31
2022-12-04T05:31:05.665Z,54.25
2022-12-04T05:33:18.811Z,54.31
2022-12-04T05:35:32.095Z,53.58
2022-12-04T05:37:46.886Z,53.73
2022-12-04T05:40:00.239Z,54.05
2022-12-04T05:42:13.695Z,53.74
2022-12-04T05:44:27.136Z,53.85
2022-12-04T05:46:40.534Z,53.73
2022-12-04T05:48:53.908Z,53.67
2022-12-04T05:51:08.429Z,53.91
2022-12-04T05:53:21.762Z,53.44
2022-12-04T05:55:35.035Z,53.90
2022-12-04T05:57:48.168Z,54.07
2022-12-04T06:00:01.606Z,53.78
2022-12-04T06:02:24.330Z,53.50
2022-12-04T06:04:37.806Z,53.34
2022-12-04T06:06:51.193Z,53.27
2022-12-04T06:09:04.918Z,53.59
2022-12-04T06:11:19.780Z,53.74
2022-12-04T06:13:33.388Z,53.66
2022-12-04T06:15:47.421Z,53.76
2022-12-04T06:18:01.264Z,53.71
2022-12-04T06:20:18.320Z,53.77
2022-12-04T06:22:32.050Z,53.95
2022-12-04T06:24:45.672Z,53.82
2022-12-04T06:27:26.887Z,53.84
2022-12-04T06:29:36.642Z,53.76
2022-12-04T06:31:50.278Z,53.81
2022-12-04T06:34:04.236Z,53.78
2022-12-04T06:36:20.008Z,53.25
2022-12-04T06:38:34.127Z,53.76
2022-12-04T06:40:48.472Z,53.81
2022-12-04T06:43:02.019Z,54.02
2022-12-04T06:45:17.777Z,53.97
2022-12-04T06:47:31.278Z,53.64
2022-12-04T06:49:44.995Z,53.99
2022-12-04T06:51:58.659Z,53.75
2022-12-04T06:54:13.213Z,53.97
2022-12-04T06:56:28.795Z,53.92
2022-12-04T06:58:42.418Z,54.04
2022-12-04T07:00:56.500Z,53.90
2022-12-04T07:03:10.232Z,54.10
2022-12-04T07:05:23.982Z,54.21
2022-12-04T07:07:37.674Z,54.12
2022-12-04T07:09:51.482Z,54.23
2022-12-04T07:12:05.051Z,54.43
2022-12-04T07:14:18.861Z,54.41
2022-12-04T07:16:39.949Z,54.34
2022-12-04T07:18:55.115Z,54.43
2022-12-04T07:21:11.510Z,54.56
2022-12-04T07:23:25.114Z,54.58
2022-12-04T07:25:42.476Z,54.72
2022-12-04T07:27:56.162Z,54.62
2022-12-04T07:30:15.468Z,54.96
2022-12-04T07:32:29.809Z,54.68
2022-12-04T07:34:43.443Z,54.80
2022-12-04T07:36:57.095Z,54.96
2022-12-04T07:39:10.938Z,54.90
2022-12-04T07:41:24.915Z,55.02
2022-12-04T07:43:39.406Z,54.89
2022-12-04T07:45:53.153Z,54.83
2022-12-04T07:48:06.934Z,55.04
2022-12-04T07:50:21.144Z,54.88
2022-12-04T07:52:35.038Z,55.10
2022-12-04T07:54:48.680Z,54.91
2022-12-04T07:57:02.406Z,54.72
2022-12-04T07:59:15.964Z,54.94
2022-12-04T08:01:30.128Z,54.62
2022-12-04T08:03:48.103Z,54.95
2022-12-04T08:06:06.160Z,55.01
2022-12-04T08:08:19.954Z,54.73
2022-12-04T08:10:33.750Z,54.82
2022-12-04T08:12:47.364Z,54.54
2022-12-04T08:15:00.934Z,54.52
2022-12-04T08:17:14.616Z,54.67
2022-12-04T08:19:28.539Z,54.53
2022-12-04T08:21:42.193Z,54.38
2022-12-04T08:23:57.207Z,54.46
2022-12-04T08:26:11.059Z,54.15
2022-12-04T08:28:24.585Z,53.98
2022-12-04T08:30:39.116Z,53.84
2022-12-04T08:32:52.770Z,53.89
2022-12-04T08:35:06.391Z,53.62
2022-12-04T08:37:19.935Z,53.88
2022-12-04T08:39:33.853Z,53.75
2022-12-04T08:41:50.050Z,53.88
2022-12-04T08:44:06.414Z,53.34
2022-12-04T08:46:21.443Z,53.46
2022-12-04T08:48:35.201Z,53.48
2022-12-04T08:50:53.039Z,53.54
2022-12-04T08:53:06.778Z,52.82
2022-12-04T08:55:21.477Z,52.29
2022-12-04T08:57:35.273Z,52.78
2022-12-04T08:59:48.928Z,52.77
2022-12-04T09:02:02.606Z,52.82
2022-12-04T09:04:16.556Z,52.88
2022-12-04T09:06:30.418Z,53.24
2022-12-04T09:08:44.766Z,53.02
2022-12-04T09:10:58.547Z,52.89
2022-12-04T09:13:13.005Z,53.21
2022-12-04T09:15:27.213Z,53.30
2022-12-04T09:17:41.250Z,53.29
2022-12-04T09:20:00.510Z,53.07
2022-12-04T09:22:14.649Z,53.21
2022-12-04T09:24:29.449Z,52.97
2022-12-04T09:26:43.553Z,53.21
2022-12-04T09:28:57.805Z,53.28
2022-12-04T09:31:12.052Z,53.15
2022-12-04T09:33:25.838Z,53.07
2022-12-04T09:35:39.497Z,53.28
2022-12-04T09:37:53.083Z,53.25
2022-12-04T09:40:06.779Z,53.27
2022-12-04T09:42:41.173Z,53.35
2022-12-04T09:45:02.073Z,53.05
2022-12-04T09:47:25.207Z,53.08
2022-12-04T09:49:44.541Z,53.20
2022-12-04T09:52:00.323Z,53.27
2022-12-04T09:54:20.283Z,53.20
2022-12-04T09:56:35.990Z,53.06
2022-12-04T09:58:54.657Z,53.20
2022-12-04T10:01:10.199Z,53.30
2022-12-04T10:03:34.853Z,53.31
2022-12-04T10:05:57.578Z,53.54
2022-12-04T10:08:23.053Z,53.37
2022-12-04T10:10:43.704Z,53.57
2022-12-04T10:13:03.816Z,53.61
2022-12-04T10:15:32.425Z,53.81
2022-12-04T10:18:01.823Z,53.67
2022-12-04T10:20:30.614Z,53.76
2022-12-04T10:22:55.899Z,54.00
2022-12-04T10:25:15.960Z,53.88
2022-12-04T10:27:34.172Z,53.87
2022-12-04T10:29:50.712Z,53.93
2022-12-04T10:32:09.086Z,53.73
2022-12-04T10:34:26.951Z,53.78
2022-12-04T10:36:40.990Z,53.58
2022-12-04T10:38:59.220Z,53.72
2022-12-04T10:41:19.076Z,54.03
2022-12-04T10:43:40.129Z,53.97
2022-12-04T10:45:53.762Z,54.14
2022-12-04T10:48:09.496Z,53.99
2022-12-04T10:50:25.707Z,53.72
2022-12-04T10:52:39.521Z,54.12
2022-12-04T10:54:55.836Z,54.05
2022-12-04T10:57:11.335Z,53.90
2022-12-04T10:59:25.561Z,53.90
2022-12-04T11:01:40.452Z,53.82
2022-12-04T11:04:03.585Z,54.12
2022-12-04T11:06:18.710Z,54.24
2022-12-04T11:08:35.656Z,54.11
2022-12-04T11:11:00.296Z,54.37
2022-12-04T11:13:22.374Z,54.52
2022-12-04T11:15:38.297Z,54.58
2022-12-04T11:17:53.882Z,54.69
2022-12-04T11:20:09.965Z,54.57
2022-12-04T11:22:25.105Z,54.73
2022-12-04T11:24:40.227Z,54.88
2022-12-04T11:26:55.077Z,55.12
2022-12-04T11:29:10.441Z,55.17
2022-12-04T11:31:26.331Z,55.27
2022-12-04T11:33:46.422Z,54.94
2022-12-04T11:36:03.528Z,55.06
2022-12-04T11:38:22.584Z,54.96
2022-12-04T11:40:37.130Z,54.89
2022-12-04T11:43:00.868Z,55.09
2022-12-04T11:45:26.288Z,55.28
2022-12-04T11:47:40.281Z,55.26
2022-12-04T11:50:07.299Z,55.30
2022-12-04T11:52:37.834Z,55.33
2022-12-04T11:55:04.656Z,55.45
2022-12-04T11:57:26.659Z,55.00
2022-12-04T11:59:52.464Z,55.06
2022-12-04T12:02:17.639Z,54.98
2022-12-04T12:05:02.202Z,55.20
2022-12-04T12:07:37.549Z,55.34
2022-12-04T12:10:02.878Z,55.38
2022-12-04T12:12:21.574Z,55.41
2022-12-04T12:14:45.395Z,55.44
2022-12-04T12:17:08.859Z,55.55
2022-12-04T12:19:58.933Z,55.49
2022-12-04T12:22:20.446Z,55.82
2022-12-04T12:24:40.390Z,55.96
2022-12-04T12:27:10.536Z,55.90
2022-12-04T12:29:37.615Z,56.01
2022-12-04T12:32:10.332Z,56.12
2022-12-04T12:34:36.040Z,56.37
2022-12-04T12:36:59.317Z,56.42
2022-12-04T12:39:20.312Z,56.73
2022-12-04T12:41:39.763Z,56.58
2022-12-04T12:43:58.603Z,56.91
2022-12-04T12:46:20.214Z,56.84
2022-12-04T12:48:39.609Z,57.07
2022-12-04T12:51:14.900Z,56.87
2022-12-04T12:53:35.495Z,56.97
2022-12-04T12:55:53.369Z,57.02
2022-12-04T12:58:15.836Z,57.03
2022-12-04T13:00:32.922Z,57.10
2022-12-04T13:02:52.319Z,57.21
2022-12-04T13:05:09.023Z,57.03
2022-12-04T13:07:44.189Z,57.10
2022-12-04T13:10:05.955Z,56.82
2022-12-04T13:12:22.404Z,56.89
2022-12-04T13:14:36.007Z,56.90
2022-12-04T13:16:52.543Z,56.84
2022-12-04T13:19:16.958Z,56.88
2022-12-04T13:21:45.755Z,56.79
2022-12-04T13:24:20.935Z,56.80
2022-12-04T13:26:49.678Z,56.70
2022-12-04T13:29:16.768Z,56.85
2022-12-04T13:31:39.287Z,56.60
2022-12-04T13:34:14.487Z,56.64
2022-12-04T13:36:42.874Z,56.54
2022-12-04T13:39:22.043Z,56.54
2022-12-04T13:41:39.118Z,56.54
2022-12-04T13:43:56.794Z,56.50
2022-12-04T13:46:25.720Z,56.42
2022-12-04T13:48:42.931Z,56.32
2022-12-04T13:51:09.527Z,56.43
2022-12-04T13:53:38.592Z,56.52
2022-12-04T13:56:07.984Z,56.34
2022-12-04T13:58:37.503Z,56.50
2022-12-04T14:00:51.685Z,56.49
2022-12-04T14:03:08.430Z,56.24
2022-12-04T14:05:29.538Z,56.43
2022-12-04T14:07:46.319Z,56.38
2022-12-04T14:10:01.420Z,56.27
2022-12-04T14:12:18.203Z,56.47
2022-12-04T14:14:40.149Z,56.36
2022-12-04T14:16:55.506Z,56.33
2022-12-04T14:19:10.086Z,56.49
2022-12-04T14:21:23.776Z,56.41
2022-12-04T14:23:44.677Z,56.08
2022-12-04T14:25:59.166Z,56.16
2022-12-04T14:28:42.360Z,56.08
2022-12-04T14:31:17.459Z,56.17
2022-12-04T14:33:33.237Z,56.14
2022-12-04T14:36:05.180Z,56.20
2022-12-04T14:38:25.988Z,56.08
2022-12-04T14:40:49.317Z,55.88
2022-12-04T14:43:03.237Z,56.20
2022-12-04T14:45:30.721Z,56.33
2022-12-04T14:47:52.664Z,56.39
2022-12-04T14:50:18.425Z,56.09
2022-12-04T14:52:38.423Z,56.25
2022-12-04T14:55:07.955Z,56.13
2022-12-04T14:57:39.647Z,56.31
2022-12-04T14:59:55.662Z,56.17
2022-12-04T15:02:15.181Z,56.36
2022-12-04T15:04:33.099Z,56.22
2022-12-04T15:06:55.421Z,56.38
2022-12-04T15:09:39.237Z,56.45
2022-12-04T15:12:14.415Z,56.61
2022-12-04T15:14:28.648Z,56.59
2022-12-04T15:16:42.303Z,56.47
2022-12-04T15:19:03.359Z,56.54
2022-12-04T15:21:17.836Z,56.61
2022-12-04T15:23:38.614Z,56.45
2022-12-04T15:25:54.745Z,56.52
2022-12-04T15:28:15.352Z,56.51
2022-12-04T15:30:32.567Z,56.52
2022-12-04T15:32:46.048Z,56.50
2022-12-04T15:35:03.175Z,56.53
2022-12-04T15:37:23.438Z,56.62
2022-12-04T15:39:39.535Z,56.60
2022-12-04T15:41:53.271Z,56.53
2022-12-04T15:44:24.879Z,56.64
2022-12-04T15:46:49.908Z,56.70
2022-12-04T15:49:20.062Z,56.71
2022-12-04T15:51:33.944Z,56.65
2022-12-04T15:53:51.287Z,56.81
2022-12-04T15:56:10.473Z,56.69
2022-12-04T15:58:30.066Z,56.63
2022-12-04T16:00:57.351Z,56.80
2022-12-04T16:03:29.804Z,56.75
2022-12-04T16:05:43.978Z,56.88
2022-12-04T16:07:59.836Z,56.77
2022-12-04T16:12:58.630Z,57.15
2022-12-04T16:15:13.635Z,57.09
2022-12-04T16:17:33.097Z,57.15
2022-12-04T16:19:47.958Z,57.14
2022-12-04T16:22:02.436Z,57.11
2022-12-04T16:24:19.165Z,57.22
2022-12-04T16:26:32.903Z,57.28
2022-12-04T16:28:46.991Z,57.31
2022-12-04T16:31:01.632Z,57.39
2022-12-04T16:33:16.622Z,57.33
2022-12-04T16:35:32.773Z,57.37
2022-12-04T16:37:49.844Z,57.27
2022-12-04T16:40:07.797Z,57.02
2022-12-04T16:42:25.112Z,57.17
2022-12-04T16:44:41.653Z,57.25
2022-12-04T16:46:57.236Z,57.38
2022-12-04T16:49:12.030Z,57.30
2022-12-04T16:51:27.559Z,57.10
2022-12-04T16:53:42.866Z,57.15
2022-12-04T16:55:57.295Z,57.24
2022-12-04T16:58:11.686Z,57.18
2022-12-04T17:00:26.660Z,57.24
2022-12-04T17:02:40.706Z,57.29
2022-12-04T17:04:57.905Z,57.46
2022-12-04T17:07:12.064Z,57.52
2022-12-04T17:09:25.693Z,57.45
2022-12-04T17:11:39.299Z,57.37
2022-12-04T17:13:53.009Z,57.37
2022-12-04T17:16:06.626Z,57.49
2022-12-04T17:18:21.617Z,57.52
2022-12-04T17:20:35.333Z,57.61
2022-12-04T17:22:48.904Z,57.83
2022-12-04T17:25:03.111Z,58.43
2022-12-04T17:27:16.965Z,58.84
2022-12-04T17:29:30.824Z,59.28
2022-12-04T17:31:44.507Z,59.57
2022-12-04T17:34:00.245Z,59.89
2022-12-04T17:36:17.424Z,60.40
2022-12-04T17:38:30.987Z,60.79
2022-12-04T17:40:44.641Z,61.23
2022-12-04T17:42:58.194Z,61.83
2022-12-04T17:45:14.830Z,62.19
2022-12-04T17:47:28.476Z,62.49
2022-12-04T17:49:42.147Z,62.91
2022-12-04T17:51:59.062Z,63.23
2022-12-04T17:54:14.430Z,63.71
2022-12-04T17:56:28.773Z,64.17
2022-12-04T17:58:42.590Z,64.69
2022-12-04T18:00:56.431Z,65.09
2022-12-04T18:03:10.344Z,65.69
2022-12-04T18:05:27.030Z,65.70
2022-12-04T18:07:40.802Z,66.05
2022-12-04T18:09:54.585Z,66.62
2022-12-04T18:12:08.824Z,66.88
2022-12-04T18:14:25.275Z,66.82
2022-12-04T18:16:40.595Z,67.39
2022-12-04T18:18:56.155Z,67.43
2022-12-04T18:21:12.390Z,67.26
2022-12-04T18:23:25.954Z,67.61
2022-12-04T18:25:39.683Z,67.76
2022-12-04T18:27:53.264Z,67.74
2022-12-04T18:30:07.004Z,67.78
2022-12-04T18:32:20.640Z,67.85
2022-12-04T18:34:34.501Z,68.06
2022-12-04T18:36:48.567Z,68.29
2022-12-04T18:39:04.387Z,68.26
2022-12-04T18:41:18.691Z,68.60
2022-12-04T18:43:33.411Z,68.96
2022-12-04T18:45:47.147Z,69.09
2022-12-04T18:48:01.993Z,69.07
2022-12-04T18:50:16.321Z,69.18
2022-12-04T18:52:29.652Z,69.39
2022-12-04T18:54:42.999Z,69.48
2022-12-04T18:56:56.777Z,69.66
2022-12-04T18:59:11.760Z,69.51
2022-12-04T19:01:25.576Z,69.51
2022-12-04T19:03:39.299Z,69.69
2022-12-04T19:05:56.867Z,69.75
2022-12-04T19:08:10.452Z,69.80
2022-12-04T19:10:24.177Z,69.78
2022-12-04T19:12:37.985Z,69.91
2022-12-04T19:14:51.539Z,69.99
2022-12-04T19:17:05.053Z,69.88
2022-12-04T19:19:19.071Z,69.77
2022-12-04T19:21:32.784Z,69.99
2022-12-04T19:23:46.565Z,70.08
2022-12-04T19:26:03.884Z,69.99
2022-12-04T19:28:17.445Z,69.76
2022-12-04T19:30:30.901Z,69.58
2022-12-04T19:32:44.437Z,69.80
2022-12-04T19:34:57.963Z,69.78
2022-12-04T19:37:11.380Z,69.95
2022-12-04T19:39:24.742Z,69.93
2022-12-04T19:41:38.411Z,69.94
2022-12-04T19:43:52.847Z,69.83
2022-12-04T19:46:06.210Z,69.74
2022-12-04T19:48:19.699Z,69.80
2022-12-04T19:50:33.623Z,69.77
2022-12-04T19:52:47.338Z,69.88
2022-12-04T19:55:00.717Z,69.79
2022-12-04T19:57:14.904Z,69.83
2022-12-04T19:59:33.044Z,69.88
2022-12-04T20:01:49.576Z,69.92
2022-12-04T20:04:03.607Z,69.90
2022-12-04T20:06:19.366Z,69.83
2022-12-04T20:08:32.709Z,69.46
2022-12-04T20:10:46.020Z,69.46
2022-12-04T20:12:59.412Z,69.32
2022-12-04T20:15:13.449Z,69.52
2022-12-04T20:17:26.704Z,69.66
2022-12-04T20:19:40.039Z,69.58
2022-12-04T20:21:58.915Z,69.61
2022-12-04T20:24:14.812Z,69.85
2022-12-04T20:26:30.268Z,69.88
2022-12-04T20:28:44.693Z,69.90
2022-12-04T20:30:58.728Z,69.83
2022-12-04T20:33:12.164Z,69.97
2022-12-04T20:35:25.868Z,70.05
2022-12-04T20:37:39.487Z,70.11
2022-12-04T20:39:52.808Z,70.14
2022-12-04T20:42:06.216Z,70.10
2022-12-04T20:44:21.318Z,70.23
2022-12-04T20:46:36.526Z,70.17
2022-12-04T20:48:51.030Z,70.31
2022-12-04T20:51:06.967Z,70.30
2022-12-04T20:53:20.441Z,70.25
2022-12-04T20:55:33.772Z,70.40
2022-12-04T20:57:47.099Z,70.51
2022-12-04T21:00:01.975Z,70.49
2022-12-04T21:02:16.659Z,70.63
2022-12-04T21:04:30.114Z,70.77
2022-12-04T21:06:44.649Z,70.61
2022-12-04T21:08:58.994Z,70.72
2022-12-04T21:11:12.353Z,70.91
2022-12-04T21:13:41.984Z,70.72
2022-12-04T21:16:06.148Z,70.86
2022-12-04T21:18:19.464Z,70.81
2022-12-04T21:20:32.589Z,70.82
2022-12-04T21:22:45.771Z,70.94
2022-12-04T21:24:59.315Z,70.92
2022-12-04T21:27:17.373Z,70.83
2022-12-04T21:29:34.275Z,71.09
2022-12-04T21:31:47.658Z,71.01
2022-12-04T21:34:04.262Z,71.09
2022-12-04T21:36:17.798Z,71.22
2022-12-04T21:38:31.134Z,71.33
2022-12-04T21:40:44.547Z,71.36
2022-12-04T21:42:57.866Z,71.44
2022-12-04T21:45:13.158Z,71.54
2022-12-04T21:47:29.787Z,71.62
2022-12-04T21:49:44.074Z,71.63
2022-12-04T21:51:58.652Z,71.66
2022-12-04T21:54:12.627Z,71.67
2022-12-04T21:56:26.001Z,71.66
2022-12-04T21:58:39.352Z,71.68
2022-12-04T22:00:53.054Z,71.57
2022-12-04T22:03:07.232Z,71.68
2022-12-04T22:05:20.976Z,71.53
2022-12-04T22:07:34.616Z,71.69
2022-12-04T22:09:48.256Z,71.84
2022-12-04T22:12:06.802Z,72.06
2022-12-04T22:14:28.168Z,72.21
2022-12-04T22:16:42.791Z,72.06
2022-12-04T22:19:00.374Z,72.08
2022-12-04T22:21:16.128Z,72.25
2022-12-04T22:23:29.813Z,72.37
2022-12-04T22:25:43.398Z,72.44
2022-12-04T22:27:58.296Z,72.40
2022-12-04T22:30:14.129Z,72.40
2022-12-04T22:32:28.067Z,72.47
2022-12-04T22:34:41.452Z,72.54
2022-12-04T22:36:55.291Z,72.58
2022-12-04T22:39:10.201Z,72.42
2022-12-04T22:41:25.969Z,72.41
2022-12-04T22:43:41.043Z,72.34
2022-12-04T22:45:55.471Z,72.26
2022-12-04T22:48:09.192Z,72.24
2022-12-04T22:50:23.089Z,72.31
2022-12-04T22:52:37.913Z,72.40
2022-12-04T22:54:53.017Z,72.56
2022-12-04T22:57:06.421Z,72.66
2022-12-04T22:59:19.836Z,72.57
2022-12-04T23:01:34.591Z,72.71
2022-12-04T23:03:49.053Z,72.88
2022-12-04T23:06:06.257Z,72.82
2022-12-04T23:08:19.896Z,72.92
2022-12-04T23:10:33.253Z,72.85
2022-12-04T23:12:46.588Z,72.82
2022-12-04T23:15:00.145Z,72.59
2022-12-04T23:17:13.525Z,72.80
2022-12-04T23:19:27.224Z,72.75
2022-12-04T23:21:40.700Z,72.76
2022-12-04T23:23:55.236Z,72.80
2022-12-04T23:26:10.905Z,72.91
2022-12-04T23:28:24.560Z,73.00
2022-12-04T23:30:37.913Z,73.05
2022-12-04T23:32:51.214Z,73.22
2022-12-04T23:35:04.567Z,73.29
2022-12-04T23:37:17.795Z,73.34
2022-12-04T23:39:31.370Z,73.38
2022-12-04T23:41:44.656Z,73.29
2022-12-04T23:43:58.674Z,73.41
2022-12-04T23:46:12.415Z,73.48
2022-12-04T23:48:25.658Z,73.56
2022-12-04T23:50:38.934Z,73.45
2022-12-04T23:52:52.145Z,73.66
2022-12-04T23:55:05.402Z,73.56
2022-12-04T23:57:18.608Z,73.68
2022-12-04T23:59:31.837Z,73.70
